createdAt,value
2023-08-02T00:00:29.861Z,15.82
2023-08-02T00:02:56.354Z,18.83
2023-08-02T00:05:22.779Z,14.68
2023-08-02T00:07:49.343Z,15.45
2023-08-02T00:10:15.800Z,13.15
2023-08-02T00:12:42.246Z,16.60
2023-08-02T00:15:09.005Z,16.30
2023-08-02T00:17:37.109Z,15.30
2023-08-02T00:20:05.531Z,17.23
2023-08-02T00:22:31.900Z,13.32
2023-08-02T00:24:58.338Z,16.65
2023-08-02T00:27:25.189Z,12.50
2023-08-02T00:29:51.786Z,20.98
2023-08-02T00:32:19.742Z,16.67
2023-08-02T00:34:46.341Z,14.95
2023-08-02T00:37:12.974Z,12.32
2023-08-02T00:39:39.496Z,13.93
2023-08-02T00:42:06.087Z,17.38
2023-08-02T00:44:32.565Z,17.30
2023-08-02T00:46:59.158Z,12.88
2023-08-02T00:49:25.903Z,18.98
2023-08-02T00:51:52.429Z,17.80
2023-08-02T00:54:19.387Z,25.20
2023-08-02T00:56:45.800Z,13.40
2023-08-02T00:59:12.300Z,15.10
2023-08-02T01:01:38.691Z,17.83
2023-08-02T01:04:05.138Z,17.15
2023-08-02T01:06:37.297Z,12.18
2023-08-02T01:09:10.489Z,17.63
2023-08-02T01:11:43.389Z,13.23
2023-08-02T01:14:12.977Z,14.77
2023-08-02T01:16:41.819Z,17.00
2023-08-02T01:19:12.366Z,15.18
2023-08-02T01:21:39.561Z,17.52
2023-08-02T01:24:08.347Z,15.70
2023-08-02T01:26:38.069Z,13.95
2023-08-02T01:29:08.389Z,15.45
2023-08-02T01:31:36.783Z,20.38
2023-08-02T01:34:04.802Z,14.80
2023-08-02T01:36:31.644Z,17.98
2023-08-02T01:38:58.138Z,15.25
2023-08-02T01:41:24.685Z,14.63
2023-08-02T01:43:51.229Z,9.75
2023-08-02T01:46:17.832Z,14.63
2023-08-02T01:48:47.358Z,11.38
2023-08-02T01:51:13.699Z,12.07
2023-08-02T01:53:40.047Z,11.15
2023-08-02T01:56:06.454Z,13.52
2023-08-02T01:58:32.904Z,12.18
2023-08-02T02:00:59.428Z,13.15
2023-08-02T02:03:29.035Z,12.07
2023-08-02T02:05:56.169Z,16.77
2023-08-02T02:08:23.356Z,14.82
2023-08-02T02:10:57.034Z,15.32
2023-08-02T02:13:25.623Z,11.70
2023-08-02T02:15:52.606Z,18.30
2023-08-02T02:18:18.980Z,9.88
2023-08-02T02:20:45.379Z,17.15
2023-08-02T02:23:11.904Z,14.98
2023-08-02T02:25:38.345Z,15.68
2023-08-02T02:28:04.950Z,9.50
2023-08-02T02:30:32.035Z,12.73
2023-08-02T02:32:58.662Z,16.05
2023-08-02T02:35:26.397Z,13.70
2023-08-02T02:37:52.893Z,12.35
2023-08-02T02:40:19.342Z,13.52
2023-08-02T02:42:45.752Z,14.60
2023-08-02T02:45:12.141Z,17.23
2023-08-02T02:47:38.561Z,18.48
2023-08-02T02:50:05.472Z,11.45
2023-08-02T02:52:33.825Z,14.77
2023-08-02T02:57:26.692Z,16.30
2023-08-02T02:59:53.191Z,12.75
2023-08-02T03:02:19.767Z,16.67
2023-08-02T03:04:46.239Z,16.23
2023-08-02T03:07:12.585Z,18.08
2023-08-02T03:09:38.969Z,13.63
2023-08-02T03:12:05.668Z,18.30
2023-08-02T03:14:32.129Z,17.48
2023-08-02T03:16:58.662Z,12.93
2023-08-02T03:19:25.626Z,10.63
2023-08-02T03:21:52.023Z,11.10
2023-08-02T03:24:18.574Z,15.75
2023-08-02T03:26:45.198Z,12.20
2023-08-02T03:29:11.613Z,16.88
2023-08-02T03:31:38.092Z,16.33
2023-08-02T03:34:04.570Z,17.70
2023-08-02T03:36:31.027Z,14.32
2023-08-02T03:38:57.472Z,12.70
2023-08-02T03:41:23.966Z,12.57
2023-08-02T03:43:50.485Z,12.40
2023-08-02T03:46:16.957Z,15.27
2023-08-02T03:48:43.373Z,16.52
2023-08-02T03:51:09.874Z,14.35
2023-08-02T03:53:36.206Z,14.25
2023-08-02T03:56:02.640Z,16.20
2023-08-02T03:58:29.822Z,12.82
2023-08-02T04:00:56.209Z,14.27
2023-08-02T04:03:22.764Z,13.52
2023-08-02T04:05:49.181Z,18.33
2023-08-02T04:08:15.656Z,14.00
2023-08-02T04:10:42.103Z,16.13
2023-08-02T04:13:08.538Z,15.30
2023-08-02T04:15:35.926Z,11.18
2023-08-02T04:18:03.306Z,11.60
2023-08-02T04:20:30.644Z,12.27
2023-08-02T04:22:57.132Z,10.05
2023-08-02T04:25:23.688Z,11.60
2023-08-02T04:27:50.203Z,12.27
2023-08-02T04:30:16.622Z,15.07
2023-08-02T04:32:43.273Z,12.82
2023-08-02T04:35:09.748Z,16.45
2023-08-02T04:37:37.415Z,21.65
2023-08-02T04:40:04.238Z,12.88
2023-08-02T04:42:32.961Z,20.95
2023-08-02T04:44:59.402Z,12.57
2023-08-02T04:47:28.134Z,15.18
2023-08-02T04:49:58.341Z,11.60
2023-08-02T04:52:24.961Z,11.88
2023-08-02T04:54:51.929Z,9.15
2023-08-02T04:57:18.413Z,15.32
2023-08-02T04:59:44.770Z,9.07
2023-08-02T05:02:11.193Z,12.45
2023-08-02T05:04:40.652Z,10.25
2023-08-02T05:07:07.073Z,14.30
2023-08-02T05:09:33.620Z,12.00
2023-08-02T05:11:59.980Z,15.20
2023-08-02T05:14:28.355Z,9.23
2023-08-02T05:16:55.208Z,12.88
2023-08-02T05:19:21.574Z,11.82
2023-08-02T05:21:47.963Z,10.80
2023-08-02T05:24:14.344Z,13.02
2023-08-02T05:26:40.868Z,10.05
2023-08-02T05:29:07.353Z,14.27
2023-08-02T05:31:33.947Z,10.38
2023-08-02T05:34:00.463Z,9.95
2023-08-02T05:36:27.031Z,9.73
2023-08-02T05:38:53.439Z,11.10
2023-08-02T05:41:19.893Z,12.63
2023-08-02T05:43:46.353Z,8.27
2023-08-02T05:46:13.061Z,10.80
2023-08-02T05:48:39.625Z,14.13
2023-08-02T05:51:06.061Z,10.38
2023-08-02T05:53:32.583Z,10.68
2023-08-02T05:55:59.038Z,10.30
2023-08-02T05:58:25.681Z,11.50
2023-08-02T06:00:52.306Z,13.10
2023-08-02T06:03:18.794Z,10.25
2023-08-02T06:05:45.238Z,12.45
2023-08-02T06:08:11.794Z,11.23
2023-08-02T06:10:38.217Z,10.40
2023-08-02T06:13:04.576Z,11.35
2023-08-02T06:15:31.112Z,10.15
2023-08-02T06:17:57.509Z,10.13
2023-08-02T06:20:24.014Z,7.20
2023-08-02T06:22:50.449Z,10.80
2023-08-02T06:25:17.002Z,6.63
2023-08-02T06:27:43.508Z,10.20
2023-08-02T06:30:10.477Z,6.00
2023-08-02T06:32:37.085Z,8.43
2023-08-02T06:35:03.961Z,8.70
2023-08-02T06:37:30.624Z,8.48
2023-08-02T06:39:57.136Z,9.85
2023-08-02T06:42:23.654Z,9.48
2023-08-02T06:44:50.255Z,11.20
2023-08-02T06:47:16.789Z,8.50
2023-08-02T06:49:43.279Z,10.98
2023-08-02T06:52:10.225Z,9.77
2023-08-02T06:54:37.100Z,8.00
2023-08-02T06:57:03.834Z,10.85
2023-08-02T06:59:30.442Z,9.77
2023-08-02T07:01:57.005Z,13.07
2023-08-02T07:04:23.657Z,10.82
2023-08-02T07:06:50.204Z,9.27
2023-08-02T07:09:16.771Z,7.93
2023-08-02T07:11:43.206Z,13.00
2023-08-02T07:14:09.774Z,9.23
2023-08-02T07:16:36.421Z,13.93
2023-08-02T07:19:03.268Z,9.93
2023-08-02T07:21:30.184Z,8.80
2023-08-02T07:23:56.972Z,9.10
2023-08-02T07:26:23.502Z,9.70
2023-08-02T07:28:49.935Z,10.82
2023-08-02T07:31:17.502Z,12.23
2023-08-02T07:33:44.379Z,11.75
2023-08-02T07:36:19.118Z,14.10
2023-08-02T07:38:46.731Z,13.88
2023-08-02T07:41:14.065Z,11.40
2023-08-02T07:43:40.573Z,8.67
2023-08-02T07:46:15.712Z,10.30
2023-08-02T07:48:42.297Z,8.35
2023-08-02T07:51:08.795Z,8.88
2023-08-02T07:53:36.140Z,8.88
2023-08-02T07:56:04.300Z,7.85
2023-08-02T07:58:30.941Z,8.48
2023-08-02T08:00:57.397Z,9.77
2023-08-02T08:03:23.888Z,10.77
2023-08-02T08:05:50.352Z,8.50
2023-08-02T08:08:17.807Z,5.30
2023-08-02T08:10:50.854Z,9.30
2023-08-02T08:13:17.418Z,9.43
2023-08-02T08:15:43.918Z,8.95
2023-08-02T08:18:10.482Z,7.95
2023-08-02T08:20:36.955Z,9.48
2023-08-02T08:23:03.501Z,10.10
2023-08-02T08:25:30.000Z,10.05
2023-08-02T08:27:57.637Z,7.82
2023-08-02T08:30:24.269Z,10.15
2023-08-02T08:32:51.018Z,9.38
2023-08-02T08:35:18.420Z,17.35
2023-08-02T08:37:44.881Z,9.07
2023-08-02T08:40:18.302Z,9.80
2023-08-02T08:42:52.628Z,12.95
2023-08-02T08:45:21.131Z,11.90
2023-08-02T08:47:48.397Z,9.93
2023-08-02T08:50:16.135Z,10.83
2023-08-02T08:52:45.978Z,8.82
2023-08-02T08:55:15.145Z,12.02
2023-08-02T08:57:42.898Z,10.50
2023-08-02T09:00:10.266Z,8.48
2023-08-02T09:02:38.940Z,11.20
2023-08-02T09:05:05.800Z,9.48
2023-08-02T09:07:32.954Z,8.93
2023-08-02T09:10:02.349Z,7.57
2023-08-02T09:12:29.375Z,8.52
2023-08-02T09:15:03.971Z,9.18
2023-08-02T09:17:45.986Z,8.73
2023-08-02T09:20:13.086Z,6.65
2023-08-02T09:22:39.612Z,7.72
2023-08-02T09:25:07.316Z,6.53
2023-08-02T09:27:34.101Z,8.10
2023-08-02T09:30:00.675Z,6.28
2023-08-02T09:32:28.013Z,7.50
2023-08-02T09:34:56.625Z,4.37
2023-08-02T09:37:34.764Z,4.85
2023-08-02T09:42:29.011Z,4.22
2023-08-02T09:45:02.211Z,5.45
2023-08-02T09:47:29.455Z,3.95
2023-08-02T09:50:11.920Z,2.67
2023-08-02T09:52:41.543Z,3.42
2023-08-02T09:55:09.162Z,3.13
2023-08-02T09:57:35.647Z,3.22
2023-08-02T10:00:05.617Z,4.43
2023-08-02T10:02:32.849Z,3.90
2023-08-02T10:05:00.732Z,3.33
2023-08-02T10:07:40.602Z,3.08
2023-08-02T10:10:37.717Z,2.80
2023-08-02T10:13:12.550Z,2.22
2023-08-02T10:15:39.136Z,2.05
2023-08-02T10:18:06.136Z,2.08
2023-08-02T10:20:34.202Z,2.40
2023-08-02T10:23:04.900Z,2.65
2023-08-02T10:25:34.726Z,2.38
2023-08-02T10:28:01.619Z,2.40
2023-08-02T10:30:30.952Z,2.00
2023-08-02T10:33:22.952Z,2.30
2023-08-02T10:35:58.653Z,2.30
2023-08-02T10:38:38.366Z,2.10
2023-08-02T10:41:10.545Z,1.80
2023-08-02T10:43:52.322Z,1.73
2023-08-02T10:46:24.796Z,2.88
2023-08-02T10:48:51.621Z,2.53
2023-08-02T10:51:35.343Z,1.80
2023-08-02T10:54:18.618Z,1.85
2023-08-02T10:56:57.635Z,1.80
2023-08-02T10:59:24.173Z,1.65
2023-08-02T11:02:01.239Z,1.77
2023-08-02T11:04:39.510Z,2.42
2023-08-02T11:07:27.870Z,1.60
2023-08-02T11:09:54.450Z,1.67
2023-08-02T11:12:22.268Z,1.65
2023-08-02T11:14:51.885Z,1.33
2023-08-02T11:22:27.451Z,1.75
2023-08-02T11:24:55.125Z,3.55
2023-08-02T11:30:14.712Z,2.08
2023-08-02T11:32:48.410Z,1.63
2023-08-02T11:35:16.851Z,1.75
2023-08-02T11:37:43.619Z,1.52
2023-08-02T11:40:25.596Z,1.77
2023-08-02T11:42:54.147Z,1.73
2023-08-02T11:50:33.774Z,1.60
2023-08-02T11:55:30.390Z,1.33
2023-08-02T11:57:57.147Z,2.97
2023-08-02T12:00:24.105Z,1.77
2023-08-02T12:02:50.719Z,2.93
2023-08-02T12:05:21.662Z,1.52
2023-08-02T12:07:48.166Z,3.75
2023-08-02T12:10:28.064Z,3.88
2023-08-02T12:12:57.111Z,1.92
2023-08-02T12:15:23.726Z,1.75
2023-08-02T12:18:03.287Z,2.85
2023-08-02T12:20:34.442Z,2.75
2023-08-02T12:23:01.636Z,1.40
2023-08-02T12:25:44.231Z,4.18
2023-08-02T12:28:15.678Z,2.95
2023-08-02T12:31:00.738Z,2.00
2023-08-02T12:33:27.296Z,3.50
2023-08-02T12:35:54.024Z,3.05
2023-08-02T12:38:20.474Z,4.30
2023-08-02T12:40:49.510Z,3.28
2023-08-02T12:43:16.176Z,5.13
2023-08-02T12:45:42.992Z,3.72
2023-08-02T12:48:09.578Z,4.25
2023-08-02T12:50:36.032Z,3.50
2023-08-02T12:53:04.986Z,4.22
2023-08-02T12:55:31.642Z,3.85
2023-08-02T12:57:58.347Z,4.35
2023-08-02T13:00:28.050Z,3.63
2023-08-02T13:02:56.109Z,4.32
2023-08-02T13:05:22.856Z,4.43
2023-08-02T13:07:52.159Z,5.32
2023-08-02T13:10:19.463Z,4.53
2023-08-02T13:12:45.929Z,7.55
2023-08-02T13:15:12.596Z,5.20
2023-08-02T13:17:39.093Z,4.00
2023-08-02T13:20:08.042Z,3.50
2023-08-02T13:22:34.746Z,5.40
2023-08-02T13:25:01.374Z,3.00
2023-08-02T13:27:29.348Z,6.05
2023-08-02T13:29:59.201Z,6.30
2023-08-02T13:32:25.754Z,2.92
2023-08-02T13:34:52.643Z,3.15
2023-08-02T13:37:19.094Z,5.72
2023-08-02T13:39:45.561Z,3.38
2023-08-02T13:42:12.084Z,2.45
2023-08-02T13:44:38.604Z,3.63
2023-08-02T13:47:05.068Z,5.65
2023-08-02T13:49:31.614Z,1.88
2023-08-02T13:51:58.070Z,2.22
2023-08-02T13:54:24.749Z,3.42
2023-08-02T13:56:51.271Z,2.85
2023-08-02T13:59:17.754Z,3.58
2023-08-02T14:01:44.251Z,4.90
2023-08-02T14:04:10.737Z,3.30
2023-08-02T14:06:37.219Z,2.65
2023-08-02T14:09:03.795Z,5.82
2023-08-02T14:11:30.301Z,4.15
2023-08-02T14:13:56.705Z,3.60
2023-08-02T14:16:23.177Z,5.28
2023-08-02T14:18:49.669Z,4.82
2023-08-02T14:21:16.147Z,5.40
2023-08-02T14:23:42.629Z,2.72
2023-08-02T14:26:09.092Z,3.63
2023-08-02T14:28:37.530Z,4.60
2023-08-02T14:31:04.286Z,4.10
2023-08-02T14:33:30.784Z,4.65
2023-08-02T14:35:57.273Z,5.60
2023-08-02T14:38:23.855Z,5.13
2023-08-02T14:40:50.293Z,3.17
2023-08-02T14:43:16.711Z,3.67
2023-08-02T14:45:43.209Z,4.82
2023-08-02T14:48:09.801Z,5.13
2023-08-02T14:50:36.299Z,4.13
2023-08-02T14:53:02.808Z,9.00
2023-08-02T14:55:29.289Z,4.65
2023-08-02T14:57:55.770Z,10.00
2023-08-02T15:00:22.397Z,6.22
2023-08-02T15:02:49.035Z,7.90
2023-08-02T15:05:15.602Z,5.50
2023-08-02T15:07:42.072Z,6.55
2023-08-02T15:10:08.844Z,8.00
2023-08-02T15:12:35.330Z,7.60
2023-08-02T15:15:02.122Z,9.10
2023-08-02T15:17:28.598Z,6.35
2023-08-02T15:19:55.342Z,6.75
2023-08-02T15:22:21.804Z,8.52
2023-08-02T15:24:48.293Z,5.10
2023-08-02T15:27:14.768Z,6.55
2023-08-02T15:29:41.253Z,3.60
2023-08-02T15:32:07.896Z,3.08
2023-08-02T15:34:34.362Z,5.32
2023-08-02T15:37:00.871Z,6.28
2023-08-02T15:39:27.465Z,5.38
2023-08-02T15:41:54.057Z,4.65
2023-08-02T15:44:20.564Z,2.45
2023-08-02T15:46:49.863Z,9.52
2023-08-02T15:49:16.409Z,9.63
2023-08-02T15:51:42.906Z,7.57
2023-08-02T15:54:12.544Z,4.97
2023-08-02T15:56:40.057Z,4.25
2023-08-02T15:59:06.595Z,6.63
2023-08-02T16:01:33.103Z,5.07
2023-08-02T16:04:02.362Z,9.43
2023-08-02T16:06:29.125Z,4.40
2023-08-02T16:08:55.681Z,8.85
2023-08-02T16:11:29.809Z,5.80
2023-08-02T16:13:56.210Z,8.73
2023-08-02T16:16:26.526Z,5.07
2023-08-02T16:18:52.992Z,7.35
2023-08-02T16:21:19.412Z,8.00
2023-08-02T16:23:48.558Z,10.23
2023-08-02T16:26:15.085Z,11.82
2023-08-02T16:28:43.784Z,10.98
2023-08-02T16:31:15.486Z,6.15
2023-08-02T16:33:41.986Z,5.43
2023-08-02T16:36:08.331Z,7.10
2023-08-02T16:38:37.456Z,4.68
2023-08-02T16:41:06.198Z,7.88
2023-08-02T16:43:32.854Z,8.77
2023-08-02T16:45:59.259Z,8.15
2023-08-02T16:48:25.854Z,11.88
2023-08-02T16:50:52.513Z,7.15
2023-08-02T16:53:18.893Z,8.02
2023-08-02T16:55:45.409Z,4.70
2023-08-02T16:58:11.823Z,7.10
2023-08-02T17:00:40.971Z,7.18
2023-08-02T17:03:10.536Z,7.50
2023-08-02T17:05:36.936Z,6.70
2023-08-02T17:08:03.411Z,6.13
2023-08-02T17:10:32.599Z,4.97
2023-08-02T17:12:59.033Z,9.50
2023-08-02T17:15:25.936Z,5.20
2023-08-02T17:17:52.595Z,4.13
2023-08-02T17:20:18.993Z,4.22
2023-08-02T17:22:45.413Z,4.22
2023-08-02T17:25:11.869Z,6.50
2023-08-02T17:27:38.217Z,7.30
2023-08-02T17:30:05.014Z,6.43
2023-08-02T17:32:31.546Z,10.23
2023-08-02T17:34:57.894Z,4.70
2023-08-02T17:37:24.651Z,11.98
2023-08-02T17:39:51.027Z,10.23
2023-08-02T17:42:17.391Z,6.40
2023-08-02T17:44:43.835Z,10.55
2023-08-02T17:47:10.206Z,6.90
2023-08-02T17:49:36.620Z,9.07
2023-08-02T17:52:03.226Z,6.72
2023-08-02T17:54:29.639Z,10.60
2023-08-02T17:56:56.082Z,8.00
2023-08-02T17:59:22.618Z,8.43
2023-08-02T18:01:49.101Z,9.77
2023-08-02T18:04:15.532Z,7.50
2023-08-02T18:06:41.991Z,9.88
2023-08-02T18:09:08.479Z,11.18
2023-08-02T18:11:34.916Z,5.47
2023-08-02T18:14:01.264Z,7.78
2023-08-02T18:16:27.755Z,9.50
2023-08-02T18:18:54.269Z,9.90
2023-08-02T18:21:20.711Z,7.47
2023-08-02T18:23:47.139Z,6.97
2023-08-02T18:26:14.450Z,8.80
2023-08-02T18:28:41.133Z,8.23
2023-08-02T18:31:07.663Z,10.50
2023-08-02T18:33:34.170Z,9.88
2023-08-02T18:36:06.383Z,11.32
2023-08-02T18:38:34.063Z,13.32
2023-08-02T18:41:00.431Z,7.75
2023-08-02T18:43:26.819Z,11.23
2023-08-02T18:45:53.355Z,7.55
2023-08-02T18:48:19.736Z,5.32
2023-08-02T18:50:46.102Z,9.95
2023-08-02T18:53:12.578Z,9.30
2023-08-02T18:55:39.027Z,6.40
2023-08-02T18:58:05.432Z,9.32
2023-08-02T19:00:31.812Z,8.98
2023-08-02T19:02:58.268Z,8.60
2023-08-02T19:05:27.734Z,8.50
2023-08-02T19:07:55.518Z,6.22
2023-08-02T19:10:21.988Z,6.68
2023-08-02T19:12:49.597Z,6.95
2023-08-02T19:15:25.748Z,9.40
2023-08-02T19:17:52.480Z,10.07
2023-08-02T19:20:19.791Z,5.53
2023-08-02T19:22:47.875Z,7.77
2023-08-02T19:25:14.742Z,9.85
2023-08-02T19:27:42.293Z,4.53
2023-08-02T19:30:20.480Z,6.55
2023-08-02T19:32:46.947Z,11.15
2023-08-02T19:35:13.386Z,7.95
2023-08-02T19:37:39.777Z,7.03
2023-08-02T19:40:06.833Z,8.13
2023-08-02T19:42:39.334Z,6.85
2023-08-02T19:45:06.748Z,9.00
2023-08-02T19:47:33.321Z,9.98
2023-08-02T19:50:00.211Z,9.55
2023-08-02T19:52:27.154Z,8.57
2023-08-02T19:54:53.823Z,9.63
2023-08-02T19:57:25.086Z,7.25
2023-08-02T19:59:51.460Z,9.18
2023-08-02T20:02:23.574Z,6.82
2023-08-02T20:04:53.274Z,5.18
2023-08-02T20:07:20.287Z,5.13
2023-08-02T20:09:53.390Z,5.45
2023-08-02T20:12:20.631Z,4.53
2023-08-02T20:14:50.625Z,5.72
2023-08-02T20:17:17.409Z,6.28
2023-08-02T20:19:44.057Z,7.45
2023-08-02T20:22:11.110Z,6.00
2023-08-02T20:24:38.932Z,3.97
2023-08-02T20:27:10.641Z,7.93
2023-08-02T20:29:40.143Z,7.18
2023-08-02T20:32:09.434Z,7.45
2023-08-02T20:34:41.226Z,6.00
2023-08-02T20:37:09.424Z,6.15
2023-08-02T20:42:02.627Z,5.07
2023-08-02T20:44:29.008Z,5.82
2023-08-02T20:46:55.625Z,7.03
2023-08-02T20:49:22.065Z,6.43
2023-08-02T20:51:49.100Z,5.70
2023-08-02T20:54:15.867Z,3.60
2023-08-02T20:56:47.381Z,4.88
2023-08-02T20:59:15.860Z,3.90
2023-08-02T21:01:43.552Z,5.00
2023-08-02T21:04:11.950Z,4.50
2023-08-02T21:06:40.969Z,4.82
2023-08-02T21:09:07.507Z,4.53
2023-08-02T21:11:34.167Z,4.45
2023-08-02T21:14:00.880Z,4.38
2023-08-02T21:16:27.809Z,3.33
2023-08-02T21:18:54.380Z,4.32
2023-08-02T21:21:20.878Z,4.47
2023-08-02T21:23:47.400Z,5.65
2023-08-02T21:26:21.778Z,4.45
2023-08-02T21:28:49.293Z,5.50
2023-08-02T21:31:17.863Z,7.72
2023-08-02T21:33:45.168Z,3.45
2023-08-02T21:36:22.370Z,3.53
2023-08-02T21:38:49.313Z,3.50
2023-08-02T21:41:15.750Z,5.47
2023-08-02T21:43:43.211Z,6.25
2023-08-02T21:46:11.065Z,4.10
2023-08-02T21:48:40.336Z,2.72
2023-08-02T21:51:06.974Z,4.10
2023-08-02T21:53:33.287Z,5.38
2023-08-02T21:55:59.622Z,6.05
2023-08-02T21:58:27.902Z,4.90
2023-08-02T22:03:21.619Z,4.57
2023-08-02T22:05:48.113Z,8.55
2023-08-02T22:08:17.173Z,2.78
2023-08-02T22:10:45.270Z,5.47
2023-08-02T22:13:14.731Z,3.20
2023-08-02T22:15:42.704Z,6.50
2023-08-02T22:18:11.442Z,5.70
2023-08-02T22:20:38.362Z,6.80
2023-08-02T22:23:04.807Z,6.47
2023-08-02T22:25:31.188Z,5.47
2023-08-02T22:27:57.676Z,5.75
2023-08-02T22:30:24.584Z,5.80
2023-08-02T22:32:51.073Z,2.55
2023-08-02T22:35:17.449Z,5.85
2023-08-02T22:37:43.862Z,5.80
2023-08-02T22:40:10.339Z,8.02
2023-08-02T22:42:36.696Z,9.18
2023-08-02T22:45:03.166Z,4.53
2023-08-02T22:47:30.078Z,3.33
2023-08-02T22:50:51.133Z,3.22
2023-08-02T22:52:43.138Z,3.30
2023-08-02T22:55:14.470Z,5.10
2023-08-02T22:57:43.837Z,5.43
2023-08-02T23:00:22.708Z,4.25
2023-08-02T23:02:49.277Z,3.13
2023-08-02T23:05:21.730Z,3.25
2023-08-02T23:07:49.324Z,3.95
2023-08-02T23:10:27.876Z,4.82
2023-08-02T23:13:02.134Z,5.40
2023-08-02T23:15:28.796Z,6.00
2023-08-02T23:18:01.621Z,4.95
2023-08-02T23:20:30.907Z,5.03
2023-08-02T23:23:00.798Z,5.70
2023-08-02T23:25:27.416Z,8.77
2023-08-02T23:27:53.964Z,7.35
2023-08-02T23:30:20.491Z,5.25
2023-08-02T23:32:46.953Z,3.72
2023-08-02T23:35:14.073Z,3.72
2023-08-02T23:37:40.450Z,2.47
2023-08-02T23:40:07.423Z,3.53
2023-08-02T23:42:33.819Z,3.50
2023-08-02T23:45:00.210Z,1.95
2023-08-02T23:47:26.625Z,6.38
2023-08-02T23:49:52.988Z,3.35
2023-08-02T23:52:19.378Z,4.60
2023-08-02T23:54:45.787Z,4.18
2023-08-02T23:57:12.184Z,5.10
2023-08-02T23:59:38.607Z,3.38
